Rosewood, Illinois
Current Conditions -  °F | °C
As of 11:45 AM on Sunday 25 Jan 2015 (Local Time) from KALN Reporting Station
Drizzle Drizzle  
Wind Chill:   Ceiling: 500
Heat Index:   Visibility: 1.2mi
Dew Point:   Wind: 7mph
Humidity: 93%   Direction: 60°ENE
Pressure: 29.59"   Gusts: NA
Location:  38.8713°N, 90.0443°W
Report Text: KALN 251745Z 06006KT 1 1/4SM DZ OVC005 07/06 A2959
Loading
Personal Weather Stations






























Interactive Weather Map New forecast layout! Learn more

10-Day Weather Forecast

Advertisements
Track Severe Weather on mobile